Home > Products > Valid Products > TAF

000
FTUS43 KLBF 190700 AAA
TAFLBF
TAF AMD
KLBF 190737Z 1908/2006 VRB03KT 1/2SM FZFG VV005
      TEMPO 1908/1912 3SM BR SCT005
     FM191200 VRB03KT 3SM BR SCT005
     FM191500 25005KT P6SM SCT200
     FM191800 26007KT P6SM SKC=



000
FTUS43 KLBF 190700 AAA
TAFLBF
TAF AMD
KLBF 190709Z 1907/2006 VRB03KT 3SM BR SCT005
     FM191500 25005KT P6SM SCT200
     FM191800 26007KT P6SM SKC=



000
FTUS43 KLBF 190500 CCA
TAFLBF
TAF AMD
KLBF 190549Z 1906/2006 21004KT 1SM BR VV005
      TEMPO 1906/1910 1/4SM FZFG VV003
     FM191500 25003KT 2SM BR SCT006
     FM191600 26005KT 5SM BR SCT150
     FM191800 26007KT P6SM SCT120=



000
FTUS43 KLBF 190500
TAFVTN
TAF
KVTN 190520Z 1906/2006 22006KT P6SM SKC
      TEMPO 1906/1910 3SM BR SKC
     FM191400 24006KT 5SM BR SCT150
     FM191600 25008KT P6SM SCT150=



000
FTUS43 KLBF 190500
TAFLBF
TAF
KLBF 190520Z 1906/2006 21004KT 1SM BR VV003
      TEMPO 1906/1910 1/4SM FZFG VV003
     FM191500 25003KT 2SM BR SCT004
     FM191600 26005KT 5SM BR SCT150
     FM191800 26007KT P6SM SCT120=



000
FTUS43 KLBF 190400 AAD
TAFVTN
TAF AMD
KVTN 190457Z 1905/1924 22006KT P6SM SKC
      TEMPO 1906/1910 3SM BR SKC
     FM191400 24006KT 5SM BR SCT150
     FM191600 25008KT P6SM SCT150=



000
FTUS43 KLBF 190400 AAB
TAFLBF
TAF AMD
KLBF 190456Z 1905/1924 21004KT 1SM BR VV003
      TEMPO 1905/1909 1/4SM FZFG VV003
     FM191500 25003KT 2SM BR SCT004
     FM191600 26005KT 5SM BR SCT150
     FM191800 26007KT P6SM SCT120=



000
FTUS43 KLBF 190300 AAA
TAFLBF
TAF AMD
KLBF 190339Z 1904/1924 21004KT 3SM BR SCT003
      TEMPO 1904/1907 3/4SM BR VV002
     FM190800 25003KT 2SM BR SCT002
     FM191600 26005KT 5SM BR SCT150
     FM191800 26007KT P6SM SCT120=



000
FTUS43 KLBF 190300 AAA
TAFLBF
TAF AMD
KLBF 190339Z 1904/1924 21004KT 3SM BR SCT003
      TEMPO 1904/1907 3/4SM BR VV002
     FM190800 25003KT 2SM BR SCT002
     FM191600 26005KT 5SM BR SCT150
     FM191800 26007KT P6SM SCT120=



000
FTUS43 KLBF 190200 AAC
TAFVTN
TAF AMD
KVTN 190203Z 1902/1924 VRB04KT 5SM BR FEW150
      TEMPO 1902/1905 15004KT 1SM BR SKC
     FM191400 24006KT 5SM BR SCT150
     FM191600 25008KT P6SM SCT150=



000
FTUS43 KLBF 190100 AAB
TAFVTN
TAF AMD
KVTN 190138Z 1902/1924 21006KT 3SM BR FEW150
      TEMPO 1902/1905 15004KT 3/4SM BR SKC
     FM191400 24006KT 5SM BR SCT150
     FM191600 25008KT P6SM SCT150=



000
FTUS43 KLBF 190100 AAB
TAFVTN
TAF AMD
KVTN 190138Z 1902/1924 21006KT 3SM BR FEW150
      TEMPO 1902/1905 15004KT 3/4SM BR SKC
     FM191400 24006KT 5SM BR SCT150
     FM191600 25008KT P6SM SCT150=



000
FTUS43 KLBF 190100 AAA
TAFVTN
TAF AMD
KVTN 190105Z 1901/1924 15004KT 3/4SM BR SKC
     FM190600 23004KT 3SM BR SCT150
     FM191400 24006KT 5SM BR SCT150
     FM191600 25008KT P6SM SCT150=



000
FTUS43 KLBF 190000 AAA
TAFLBF
TAF AMD
KLBF 190033Z 1901/1924 24003KT 5SM BR SCT005
     FM190200 24003KT 3SM BR SCT004
     FM190500 25003KT 1SM BR SCT002
     FM191600 26005KT 5SM BR SCT150
     FM191800 26007KT P6SM SCT120=



000
FTUS43 KLBF 182300
TAFVTN
TAF
KVTN 182320Z 1900/1924 22005KT P6SM SKC
     FM190600 22004KT 3SM BR SCT150
     FM191400 24006KT 5SM BR SCT150
     FM191600 25008KT P6SM SCT150=



000
FTUS43 KLBF 182300
TAFLBF
TAF
KLBF 182320Z 1900/1924 23003KT 5SM BR OVC007
     FM190300 24003KT 3SM BR SCT004
     FM190600 25003KT 1SM BR SCT002
     FM191600 26005KT 5SM BR SCT150
     FM191800 26007KT P6SM SCT120=



000
FTUS43 KLBF 182300 AAB
TAFLBF
TAF AMD
KLBF 182304Z 1823/1918 23003KT 5SM BR OVC007
     FM190300 VRB03KT 3SM BR SCT150
     FM191600 27005KT 5SM BR SCT150=



000
FTUS43 KLBF 182100 AAB
TAFVTN
TAF AMD
KVTN 182157Z 1822/1918 22006KT P6SM SKC
     FM190100 VRB04KT 3SM BR SCT150
     FM191400 24006KT 5SM BR SCT150
     FM191600 24006KT P6SM SCT150=



000
FTUS43 KLBF 182100 AAA
TAFVTN
TAF AMD
KVTN 182105Z 1821/1918 23007KT P6SM SCT010
      TEMPO 1821/1822 6SM BR BKN010
     FM190100 VRB04KT 3SM BR SCT150
     FM191400 24006KT 5SM BR SCT150
     FM191600 24006KT P6SM SCT150=



000
FTUS43 KLBF 182000 AAA
TAFLBF
TAF AMD
KLBF 182038Z 1821/1918 25007KT P6SM OVC009
      TEMPO 1821/1823 5SM BR OVC007
     FM190000 25004KT 5SM BR SCT010
     FM190600 VRB03KT 3SM BR SCT150
     FM191600 27005KT 5SM BR SCT150=



000
FTUS43 KLBF 181700
TAFVTN
TAF
KVTN 181720Z 1818/1918 23007KT P6SM OVC009
     FM182200 24006KT P6SM SCT150
     FM190100 VRB04KT 3SM BR SCT150
     FM191400 24006KT 5SM BR SCT150
     FM191600 24006KT P6SM SCT150=



000
FTUS43 KLBF 181700
TAFLBF
TAF
KLBF 181720Z 1818/1918 25007KT P6SM OVC009
     FM190000 25004KT 5SM BR BKN010
     FM190600 VRB03KT 3SM BR SCT150
     FM191600 27005KT 5SM BR SCT150=



000
FTUS43 KLBF 181600 AAA
TAFVTN
TAF AMD
KVTN 181610Z 1816/1912 22007KT P6SM OVC010
      TEMPO 1816/1818 5SM BR OVC008
     FM181800 23007KT P6SM OVC015
     FM190600 23005KT P6SM SCT150=



000
FTUS43 KLBF 181500 AAA
TAFLBF
TAF AMD
KLBF 181526Z 1815/1912 21004KT P6SM OVC008
      TEMPO 1815/1818 5SM BR OVC006
     FM181800 23007KT P6SM OVC009
     FM190100 25004KT 5SM BR OVC004
     FM191000 VRB03KT 5SM BR SCT150=



000
FTUS43 KLBF 181100 RRA
TAFLBF
TAF
KLBF 181148Z 1812/1912 21004KT P6SM OVC008
     FM181800 23007KT P6SM OVC009
     FM190100 25004KT 5SM BR OVC004
     FM191000 VRB03KT 5SM BR SCT150=



000
FTUS43 KLBF 181100 RRA
TAFVTN
TAF
KVTN 181148Z 1812/1912 22007KT P6SM OVC010
     FM181800 23007KT P6SM OVC015
     FM190600 23005KT P6SM SCT150=



000
FTUS43 KLBF 181100 RRA
TAFVTN
TAF
KVTN 181148Z 1812/1912 22007KT P6SM OVC010
     FM181800 23007KT P6SM OVC015
     FM190600 23005KT P6SM SCT150=



000
FTUS43 KLBF 181100 RRA
TAFLBF
TAF
KLBF 181148Z 1812/1912 21004KT P6SM OVC008
     FM181800 23007KT P6SM OVC009
     FM190100 25004KT 5SM BR OVC004
     FM191000 VRB03KT 5SM BR SCT150=



000
FTUS43 KLBF 181000 AAA
TAFLBF
TAF AMD
KLBF 181020Z 1810/1906 20004KT P6SM SCT004 OVC009
      TEMPO 1811/1813 3SM BR OVC004
     FM181500 23005KT 4SM BR OVC004
     FM181800 23007KT P6SM OVC006
     FM190100 25004KT P6SM OVC004=



000
FTUS43 KLBF 180900 AAB
TAFVTN
TAF AMD
KVTN 180936Z 1810/1906 20007KT P6SM OVC009
     FM181800 21008KT P6SM OVC010
     FM190200 25005KT P6SM SCT010=



000
FTUS43 KLBF 180700 AAA
TAFLBF
TAF AMD
KLBF 180702Z 1807/1906 20004KT 3SM BR OVC003
      TEMPO 1809/1813 2SM BR
     FM181500 23005KT 4SM BR OVC004
     FM181800 23007KT P6SM OVC006
     FM190100 25004KT P6SM OVC004=



000
FTUS43 KLBF 180600 AAA
TAFVTN
TAF AMD
KVTN 180621Z 1806/1906 19008KT 5SM BR OVC007
     FM181800 21008KT P6SM OVC010
     FM190200 25005KT P6SM SCT010=



000
FTUS43 KLBF 180500
TAFLBF
TAF
KLBF 180520Z 1806/1906 20004KT P6SM OVC004
      TEMPO 1812/1815 3SM BR OVC003
     FM181500 23005KT 4SM BR OVC004
     FM181800 23007KT P6SM OVC006
     FM190100 25004KT P6SM OVC004=



000
FTUS43 KLBF 180500
TAFVTN
TAF
KVTN 180520Z 1806/1906 19010KT P6SM OVC008
     FM181800 26008KT P6SM OVC010
     FM190200 25005KT P6SM SCT010=



000
FTUS43 KLBF 180300 AAB
TAFLBF
TAF AMD
KLBF 180324Z 1803/1824 17005KT P6SM OVC006
     FM181000 17005KT 2SM BR OVC002
     FM181500 17005KT 3SM BR OVC004
     FM181800 21007KT P6SM OVC006=



000
FTUS43 KLBF 180200 AAA
TAFLBF
TAF AMD
KLBF 180215Z 1802/1824 16004KT 5SM BR OVC005
     FM180700 16005KT 2SM BR OVC002
     FM181500 16005KT 3SM BR OVC004
     FM181800 21007KT P6SM OVC006=



000
FTUS43 KLBF 180200 AAA
TAFVTN
TAF AMD
KVTN 180205Z 1802/1824 19010KT 6SM BR OVC007
     FM180900 20007KT 3SM BR OVC003
     FM181500 21007KT 5SM BR OVC005
     FM181800 22007KT P6SM OVC006=



000
FTUS43 KLBF 172300 CCA
TAFLBF
TAF COR
KLBF 172350Z 1800/1824 14004KT 5SM BR OVC005
      TEMPO 1801/1805 3SM BR OVC003
     FM180600 14005KT 1SM BR OVC002
     FM181400 16005KT 3SM BR OVC004
     FM181800 21007KT P6SM OVC006=



000
FTUS43 KLBF 172300
TAFVTN
TAF
KVTN 172322Z 1800/1824 16010KT 6SM BR OVC007
     FM180200 16007KT 3SM BR OVC003
     FM181500 21007KT 5SM BR OVC005
     FM181800 22007KT P6SM OVC006=



000
FTUS43 KLBF 172300
TAFLBF
TAF
KLBF 172322Z 1800/1824 13007KT 2SM BR OVC003
     FM180600 14005KT 1SM BR OVC002
     FM181400 16005KT 3SM BR OVC004
     FM181800 21007KT P6SM OVC006=



000
FTUS43 KLBF 172200 AAB
TAFLBF
TAF AMD
KLBF 172225Z 1722/1818 14004KT 2SM BR OVC003
      TEMPO 1722/1724 1SM -FZDZ BR OVC003
     FM180600 VRB05KT 5SM BR OVC005
     FM180800 VRB04KT 3SM -FZDZ BR OVC003
     FM181400 VRB04KT 5SM BR OVC005=



000
FTUS43 KLBF 172000 AAA
TAFLBF
TAF AMD
KLBF 172055Z 1721/1818 15005KT 5SM BR OVC005
      TEMPO 1721/1724 3SM -FZDZ BR OVC003
     FM180400 VRB05KT 5SM BR OVC005
     FM180800 VRB04KT 3SM -FZDZ BR OVC003
     FM181400 VRB04KT 5SM BR OVC005=



000
FTUS43 KLBF 171900 AAA
TAFVTN
TAF AMD
KVTN 171909Z 1719/1818 16010KT P6SM OVC008
     FM180800 VRB05KT P6SM OVC005
     FM181500 21005KT P6SM OVC010=



000
FTUS43 KLBF 171700
TAFLBF
TAF
KLBF 171737Z 1718/1818 13005KT 6SM BR OVC005
     FM172000 13008KT P6SM OVC008
     FM180400 12006KT 5SM BR OVC005
     FM180800 VRB04KT 3SM -FZDZ BR OVC003
     FM181400 VRB04KT 5SM BR OVC005=



000
FTUS43 KLBF 171700
TAFVTN
TAF
KVTN 171737Z 1718/1818 16010KT P6SM OVC005
     FM172100 16010KT P6SM OVC008
     FM180800 VRB05KT P6SM OVC005
     FM181500 21005KT P6SM OVC010=



000
FTUS43 KLBF 171500 AAA
TAFLBF
TAF AMD
KLBF 171534Z 1716/1812 11006KT P6SM OVC005
      TEMPO 1716/1718 3SM BR OVC005
     FM171900 13008KT P6SM OVC012
     FM180200 12006KT P6SM OVC008=



000
FTUS43 KLBF 171500 AAA
TAFVTN
TAF AMD
KVTN 171533Z 1716/1812 15006KT 5SM BR OVC004
      TEMPO 1716/1718 2SM BR
     FM171900 15010KT P6SM OVC012
     FM180400 16008KT P6SM OVC008=



000
FTUS43 KLBF 170900 AAB
TAFLBF
TAF AMD
KLBF 170904Z 1709/1806 11006KT P6SM OVC006
     FM171600 13008KT P6SM OVC012
     FM180200 12006KT P6SM OVC008=



000
FTUS43 KLBF 170900 AAB
TAFLBF
TAF AMD
KLBF 170904Z 1709/1806 11006KT P6SM OVC006
     FM171600 13008KT P6SM OVC012
     FM180200 12006KT P6SM OVC008=



000
FTUS43 KLBF 170800 AAA
TAFVTN
TAF AMD
KVTN 170802Z 1708/1806 15006KT P6SM OVC007
     FM171500 15010KT P6SM OVC012
     FM180400 16008KT P6SM OVC008=



000
FTUS43 KLBF 170800 AAA
TAFVTN
TAF AMD
KVTN 170802Z 1708/1806 15006KT P6SM OVC007
     FM171500 15010KT P6SM OVC012
     FM180400 16008KT P6SM OVC008=



000
FTUS43 KLBF 170800 AAA
TAFLBF
TAF AMD
KLBF 170802Z 1708/1806 09004KT P6SM OVC008
     FM171600 13008KT P6SM OVC012
     FM180200 12006KT P6SM OVC008=



000
FTUS43 KLBF 170800 AAA
TAFLBF
TAF AMD
KLBF 170802Z 1708/1806 09004KT P6SM OVC008
     FM171600 13008KT P6SM OVC012
     FM180200 12006KT P6SM OVC008=



000
FTUS43 KLBF 170500
TAFVTN
TAF
KVTN 170520Z 1706/1806 16005KT P6SM OVC012
     FM170800 15006KT P6SM OVC008
     FM171500 15010KT P6SM OVC012
     FM180400 16008KT P6SM OVC008=



000
FTUS43 KLBF 170500
TAFLBF
TAF
KLBF 170520Z 1706/1806 11008KT P6SM OVC006
      TEMPO 1707/1711 SCT006 OVC100
     FM171600 13008KT P6SM OVC012
     FM180200 12006KT P6SM OVC008=



000
FTUS43 KLBF 170400 AAA
TAFVTN
TAF AMD
KVTN 170431Z 1705/1724 16005KT P6SM OVC012
     FM170800 15006KT P6SM OVC008
     FM171600 15008KT P6SM OVC012
     FM172000 15010KT P6SM OVC020=



000
FTUS43 KLBF 170400 AAC
TAFLBF
TAF AMD
KLBF 170430Z 1705/1724 11008KT P6SM OVC006
      TEMPO 1707/1711 SCT006 OVC100
     FM171600 13008KT P6SM OVC012
     FM172000 12009KT P6SM OVC020=



000
FTUS43 KLBF 170300 AAB
TAFLBF
TAF AMD
KLBF 170308Z 1703/1724 12006KT P6SM OVC008
     FM171600 13008KT P6SM OVC012
     FM172000 12009KT P6SM OVC020=



000
FTUS43 KLBF 170200 AAA
TAFLBF
TAF AMD
KLBF 170224Z 1702/1724 10004KT P6SM SCT009 BKN090
      TEMPO 1702/1706 BKN009
     FM170600 16005KT P6SM OVC008
     FM171600 13008KT P6SM OVC012
     FM172000 12009KT P6SM OVC020=



000
FTUS43 KLBF 162300
TAFLBF
TAF
KLBF 162320Z 1700/1724 08005KT P6SM OVC120
     FM170600 16005KT P6SM OVC008
     FM171600 13008KT P6SM OVC012
     FM172000 12009KT P6SM OVC020=



000
FTUS43 KLBF 162300
TAFVTN
TAF
KVTN 162320Z 1700/1724 VRB04KT P6SM OVC012
     FM170400 VRB04KT P6SM OVC008
     FM171600 15008KT P6SM OVC012
     FM172000 15010KT P6SM OVC020=



000
FTUS43 KLBF 162100 AAA
TAFLBF
TAF AMD
KLBF 162105Z 1621/1718 VRB05KT P6SM SCT012
     FM162300 VRB04KT P6SM BKN015
     FM170600 VRB04KT P6SM OVC008
     FM171500 13006KT P6SM OVC012=



000
FTUS43 KLBF 161800 CCA
TAFLBF
TAF COR
KLBF 161803Z 1618/1718 35008KT P6SM BKN012
     FM162300 VRB04KT P6SM BKN015
     FM170600 VRB04KT P6SM OVC008
     FM171500 13006KT P6SM OVC012=



000
FTUS43 KLBF 161700
TAFVTN
TAF
KVTN 161730Z 1618/1718 32007KT P6SM OVC012
     FM162200 VRB04KT P6SM OVC015
     FM170400 VRB04KT P6SM OVC008
     FM171500 15007KT P6SM OVC012=



000
FTUS43 KLBF 161700
TAFLBF
TAF
KLBF 161730Z 1618/1718 35008KT P6SM OVC012
     FM162300 VRB04KT P6SM OVC015
     FM170600 VRB04KT P6SM OVC008
     FM171500 13006KT P6SM OVC012=



000
FTUS43 KLBF 161300 AAA
TAFLBF
TAF AMD
KLBF 161338Z 1614/1712 35010KT P6SM OVC009
     FM162000 VRB04KT P6SM SCT012 OVC250=



000
FTUS43 KLBF 161100
TAFLBF
TAF
KLBF 161126Z 1612/1712 33006KT P6SM OVC012
     FM162000 VRB04KT P6SM SCT012 OVC250=



000
FTUS43 KLBF 161100
TAFVTN
TAF
KVTN 161126Z 1612/1712 33008KT P6SM OVC012
     FM161900 VRB04KT P6SM SCT012 OVC025=



    US Dept of Commerce
    National Oceanic and Atmospheric Administration
    National Weather Service
    1325 East West Highway
    Silver Spring, MD 20910
    Page Author: NWS Internet Services Team
Disclaimer
Information Quality
Credits
Glossary
Privacy Policy
Freedom of Information Act (FOIA)
About Us
Career Opportunities